createdAt,value
2023-04-26T00:02:06.798Z,98257.49
2023-04-26T00:04:39.491Z,98257.13
2023-04-26T00:07:32.396Z,98254.17
2023-04-26T00:10:05.404Z,98253.31
2023-04-26T00:12:42.856Z,98253.33
2023-04-26T00:15:16.596Z,98250.71
2023-04-26T00:17:50.838Z,98251.75
2023-04-26T00:20:23.715Z,98251.94
2023-04-26T00:23:16.207Z,98246.17
2023-04-26T00:25:49.176Z,98249.31
2023-04-26T00:28:22.255Z,98250.88
2023-04-26T00:30:58.042Z,98250.52
2023-04-26T00:33:31.474Z,98253.13
2023-04-26T00:36:04.131Z,98255.73
2023-04-26T00:38:41.452Z,98255.74
2023-04-26T00:41:24.532Z,98260.29
2023-04-26T00:43:57.069Z,98265.52
2023-04-26T00:46:31.123Z,98261.86
2023-04-26T00:49:04.129Z,98265.52
2023-04-26T00:51:40.697Z,98267.63
2023-04-26T00:54:14.127Z,98266.40
2023-04-26T00:56:46.762Z,98269.02
2023-04-26T00:59:19.232Z,98269.54
2023-04-26T01:01:54.638Z,98273.54
2023-04-26T01:04:31.150Z,98271.45
2023-04-26T01:07:06.607Z,98270.77
2023-04-26T01:09:38.900Z,98271.11
2023-04-26T01:12:14.185Z,98272.16
2023-04-26T01:14:47.149Z,98277.03
2023-04-26T01:17:23.280Z,98276.00
2023-04-26T01:19:58.875Z,98282.27
2023-04-26T01:22:52.222Z,98288.73
2023-04-26T01:25:25.180Z,98287.89
2023-04-26T01:27:57.952Z,98291.71
2023-04-26T01:30:31.092Z,98287.19
2023-04-26T01:33:09.982Z,98288.95
2023-04-26T01:35:42.871Z,98289.12
2023-04-26T01:38:17.962Z,98286.15
2023-04-26T01:41:00.969Z,98290.67
2023-04-26T01:43:34.019Z,98295.38
2023-04-26T01:46:08.884Z,98295.56
2023-04-26T01:48:55.188Z,98295.73
2023-04-26T01:51:38.351Z,98291.73
2023-04-26T01:54:20.291Z,98290.17
2023-04-26T01:56:52.856Z,98290.52
2023-04-26T01:59:30.181Z,98291.20
2023-04-26T02:02:02.692Z,98293.45
2023-04-26T02:04:45.265Z,98296.59
2023-04-26T02:07:20.843Z,98297.98
2023-04-26T02:09:54.404Z,98300.77
2023-04-26T02:12:29.460Z,98300.77
2023-04-26T02:15:02.704Z,98301.82
2023-04-26T02:17:35.301Z,98299.38
2023-04-26T02:20:10.501Z,98304.25
2023-04-26T02:22:54.863Z,98303.02
2023-04-26T02:25:42.112Z,98300.39
2023-04-26T02:28:16.329Z,98301.77
2023-04-26T02:30:54.190Z,98302.64
2023-04-26T02:33:37.281Z,98307.16
2023-04-26T02:36:12.558Z,98303.33
2023-04-26T02:38:45.401Z,98307.00
2023-04-26T02:41:19.878Z,98312.41
2023-04-26T02:43:52.618Z,98313.98
2023-04-26T02:46:25.408Z,98312.08
2023-04-26T02:49:07.280Z,98317.65
2023-04-26T02:51:43.245Z,98313.64
2023-04-26T02:54:16.477Z,98319.21
2023-04-26T02:56:52.910Z,98320.27
2023-04-26T02:59:46.722Z,98322.71
2023-04-26T03:02:22.793Z,98326.20
2023-04-26T03:05:16.336Z,98323.44
2023-04-26T03:07:50.239Z,98326.06
2023-04-26T03:10:23.601Z,98322.58
2023-04-26T03:13:01.444Z,98327.13
2023-04-26T03:15:37.409Z,98332.33
2023-04-26T03:18:30.639Z,98339.13
2023-04-26T03:21:23.551Z,98347.46
2023-04-26T03:24:00.407Z,98350.43
2023-04-26T03:26:40.845Z,98356.89
2023-04-26T03:29:13.584Z,98361.42
2023-04-26T03:32:07.523Z,98367.17
2023-04-26T03:35:00.797Z,98368.73
2023-04-26T03:37:46.446Z,98371.16
2023-04-26T03:40:38.981Z,98376.20
2023-04-26T03:43:22.353Z,98377.92
2023-04-26T03:45:56.216Z,98380.55
2023-04-26T03:48:48.788Z,98381.94
2023-04-26T03:51:42.717Z,98387.33
2023-04-26T03:54:25.230Z,98392.02
2023-04-26T03:57:09.007Z,98392.71
2023-04-26T03:59:55.138Z,98397.56
2023-04-26T04:02:31.021Z,98399.66
2023-04-26T04:05:04.162Z,98403.83
2023-04-26T04:07:59.257Z,98406.63
2023-04-26T04:10:36.964Z,98411.31
2023-04-26T04:13:29.658Z,98410.58
2023-04-26T04:16:07.469Z,98414.59
2023-04-26T04:19:00.311Z,98422.41
2023-04-26T04:21:53.436Z,98418.73
2023-04-26T04:24:47.571Z,98420.29
2023-04-26T04:27:42.802Z,98428.29
2023-04-26T04:30:35.822Z,98429.65
2023-04-26T04:33:29.707Z,98434.17
2023-04-26T04:36:03.463Z,98436.42
2023-04-26T04:38:36.405Z,98442.14
2023-04-26T04:41:23.602Z,98441.60
2023-04-26T04:43:56.454Z,98449.91
2023-04-26T04:46:29.052Z,98444.14
2023-04-26T04:49:05.858Z,98447.23
2023-04-26T04:51:49.277Z,98452.59
2023-04-26T04:54:24.943Z,98450.45
2023-04-26T04:57:18.946Z,98450.76
2023-04-26T05:00:13.959Z,98453.65
2023-04-26T05:03:08.741Z,98459.75
2023-04-26T05:05:42.087Z,98462.54
2023-04-26T05:08:14.950Z,98457.09
2023-04-26T05:11:08.453Z,98466.63
2023-04-26T05:13:46.184Z,98467.98
2023-04-26T05:16:19.021Z,98463.23
2023-04-26T05:18:51.681Z,98476.23
2023-04-26T05:21:24.655Z,98476.89
2023-04-26T05:23:57.449Z,98481.64
2023-04-26T05:26:31.411Z,98485.86
2023-04-26T05:29:33.250Z,98491.34
2023-04-26T05:32:14.146Z,98492.05
2023-04-26T05:35:02.997Z,98495.17
2023-04-26T05:37:40.011Z,98500.79
2023-04-26T05:40:17.242Z,98501.63
2023-04-26T05:43:10.773Z,98503.01
2023-04-26T05:45:51.277Z,98508.35
2023-04-26T05:48:29.917Z,98510.52
2023-04-26T05:51:05.657Z,98513.62
2023-04-26T05:53:41.853Z,98519.17
2023-04-26T05:56:14.810Z,98526.33
2023-04-26T05:58:52.492Z,98526.08
2023-04-26T06:01:25.948Z,98528.94
2023-04-26T06:04:18.707Z,98533.95
2023-04-26T06:07:12.232Z,98530.11
2023-04-26T06:09:44.981Z,98537.95
2023-04-26T06:12:37.945Z,98536.57
2023-04-26T06:15:31.919Z,98541.14
2023-04-26T06:18:12.198Z,98548.14
2023-04-26T06:20:51.219Z,98549.59
2023-04-26T06:23:23.586Z,98550.89
2023-04-26T06:25:56.353Z,98557.27
2023-04-26T06:28:29.708Z,98558.85
2023-04-26T06:31:02.885Z,98552.46
2023-04-26T06:33:43.158Z,98560.56
2023-04-26T06:36:18.825Z,98553.02
2023-04-26T06:38:51.559Z,98557.86
2023-04-26T06:41:24.359Z,98562.60
2023-04-26T06:43:58.865Z,98561.15
2023-04-26T06:46:56.332Z,98564.48
2023-04-26T06:49:28.883Z,98563.98
2023-04-26T06:52:08.228Z,98562.43
2023-04-26T06:54:53.657Z,98563.57
2023-04-26T06:57:31.709Z,98569.17
2023-04-26T07:00:19.083Z,98566.16
2023-04-26T07:02:51.818Z,98568.77
2023-04-26T07:05:26.954Z,98569.95
2023-04-26T07:07:59.634Z,98571.52
2023-04-26T07:10:33.534Z,98573.64
2023-04-26T07:13:12.065Z,98576.61
2023-04-26T07:15:52.037Z,98578.13
2023-04-26T07:18:26.445Z,98583.01
2023-04-26T07:20:58.968Z,98588.20
2023-04-26T07:23:40.663Z,98584.05
2023-04-26T07:26:15.404Z,98591.88
2023-04-26T07:28:47.973Z,98590.91
2023-04-26T07:31:23.721Z,98588.02
2023-04-26T07:33:58.869Z,98594.21
2023-04-26T07:36:31.893Z,98595.71
2023-04-26T07:39:15.594Z,98596.52
2023-04-26T07:41:48.396Z,98597.63
2023-04-26T07:44:21.269Z,98601.98
2023-04-26T07:46:53.866Z,98600.32
2023-04-26T07:49:26.728Z,98596.96
2023-04-26T07:52:02.509Z,98596.21
2023-04-26T07:54:36.338Z,98599.13
2023-04-26T07:57:09.415Z,98600.31
2023-04-26T07:59:42.022Z,98597.71
2023-04-26T08:02:14.925Z,98596.62
2023-04-26T08:04:52.946Z,98597.43
2023-04-26T08:07:27.560Z,98593.30
2023-04-26T08:10:03.670Z,98597.04
2023-04-26T08:12:39.937Z,98595.67
2023-04-26T08:15:14.343Z,98595.99
2023-04-26T08:17:48.652Z,98598.02
2023-04-26T08:20:23.162Z,98609.75
2023-04-26T08:22:59.922Z,98607.27
2023-04-26T08:25:35.048Z,98610.42
2023-04-26T08:28:15.136Z,98598.63
2023-04-26T08:30:47.920Z,98600.31
2023-04-26T08:33:20.952Z,98598.89
2023-04-26T08:35:53.467Z,98598.90
2023-04-26T08:38:47.933Z,98598.83
2023-04-26T08:41:24.808Z,98594.11
2023-04-26T08:43:59.806Z,98591.44
2023-04-26T08:46:36.322Z,98587.24
2023-04-26T08:49:33.751Z,98587.79
2023-04-26T08:52:09.737Z,98581.18
2023-04-26T08:54:43.446Z,98589.82
2023-04-26T08:57:19.312Z,98592.70
2023-04-26T08:59:53.043Z,98591.95
2023-04-26T09:02:26.652Z,98600.80
2023-04-26T09:05:00.199Z,98604.13
2023-04-26T09:07:38.698Z,98599.67
2023-04-26T09:10:11.607Z,98608.29
2023-04-26T09:12:44.343Z,98602.20
2023-04-26T09:15:19.794Z,98602.96
2023-04-26T09:17:52.824Z,98605.98
2023-04-26T09:20:47.458Z,98608.23
2023-04-26T09:23:33.493Z,98617.66
2023-04-26T09:26:22.529Z,98622.27
2023-04-26T09:29:14.164Z,98624.05
2023-04-26T09:31:51.361Z,98615.32
2023-04-26T09:34:48.830Z,98617.21
2023-04-26T09:37:24.543Z,98621.35
2023-04-26T09:39:57.554Z,98620.43
2023-04-26T09:42:30.356Z,98624.91
2023-04-26T09:45:17.774Z,98620.17
2023-04-26T09:47:54.373Z,98622.29
2023-04-26T09:50:40.013Z,98624.14
2023-04-26T09:53:26.597Z,98632.37
2023-04-26T09:56:10.095Z,98628.69
2023-04-26T09:59:02.615Z,98635.76
2023-04-26T10:01:35.842Z,98637.40
2023-04-26T10:04:13.961Z,98634.84
2023-04-26T10:07:07.346Z,98642.73
2023-04-26T10:10:01.982Z,98644.02
2023-04-26T10:12:35.519Z,98642.55
2023-04-26T10:15:29.502Z,98648.55
2023-04-26T10:18:14.638Z,98650.64
2023-04-26T10:21:13.670Z,98658.29
2023-04-26T10:23:47.270Z,98659.42
2023-04-26T10:26:51.722Z,98657.52
2023-04-26T10:30:08.274Z,98661.47
2023-04-26T10:33:17.501Z,98662.78
2023-04-26T10:36:13.719Z,98662.60
2023-04-26T10:39:22.361Z,98660.33
2023-04-26T10:42:24.087Z,98662.27
2023-04-26T10:45:28.760Z,98657.84
2023-04-26T10:48:20.024Z,98657.87
2023-04-26T10:51:14.300Z,98655.06
2023-04-26T10:54:07.461Z,98654.54
2023-04-26T10:56:54.264Z,98650.98
2023-04-26T10:59:43.519Z,98649.05
2023-04-26T11:02:54.531Z,98649.58
2023-04-26T11:05:55.559Z,98649.27
2023-04-26T11:08:30.719Z,98647.27
2023-04-26T11:11:12.359Z,98654.74
2023-04-26T11:13:48.320Z,98651.93
2023-04-26T11:16:21.324Z,98663.08
2023-04-26T11:18:57.774Z,98665.93
2023-04-26T11:21:33.286Z,98669.45
2023-04-26T11:24:06.043Z,98669.95
2023-04-26T11:26:39.055Z,98675.56
2023-04-26T11:29:13.678Z,98672.23
2023-04-26T11:31:51.992Z,98671.34
2023-04-26T11:34:35.495Z,98673.09
2023-04-26T11:37:11.789Z,98678.66
2023-04-26T11:39:52.741Z,98680.63
2023-04-26T11:42:28.146Z,98684.35
2023-04-26T11:45:01.859Z,98682.80
2023-04-26T11:47:36.730Z,98680.61
2023-04-26T11:50:11.221Z,98676.52
2023-04-26T11:52:44.634Z,98673.36
2023-04-26T11:55:17.122Z,98679.66
2023-04-26T11:57:51.130Z,98679.89
2023-04-26T12:00:25.063Z,98673.95
2023-04-26T12:02:58.362Z,98680.06
2023-04-26T12:05:32.294Z,98676.65
2023-04-26T12:08:05.834Z,98678.84
2023-04-26T12:10:40.431Z,98682.42
2023-04-26T12:13:17.600Z,98688.44
2023-04-26T12:15:51.458Z,98690.17
2023-04-26T12:18:31.127Z,98685.98
2023-04-26T12:21:05.044Z,98688.52
2023-04-26T12:23:42.521Z,98689.79
2023-04-26T12:26:15.194Z,98691.44
2023-04-26T12:28:48.291Z,98686.55
2023-04-26T12:31:20.865Z,98702.09
2023-04-26T12:33:55.583Z,98696.02
2023-04-26T12:36:28.358Z,98704.50
2023-04-26T12:39:03.763Z,98705.09
2023-04-26T12:41:36.270Z,98705.73
2023-04-26T12:44:29.019Z,98706.98
2023-04-26T12:47:04.419Z,98705.73
2023-04-26T12:49:37.194Z,98702.66
2023-04-26T12:52:09.989Z,98708.27
2023-04-26T12:54:42.890Z,98701.52
2023-04-26T12:57:17.627Z,98708.13
2023-04-26T12:59:50.250Z,98704.61
2023-04-26T13:02:23.462Z,98704.77
2023-04-26T13:04:56.887Z,98705.27
2023-04-26T13:07:30.171Z,98707.23
2023-04-26T13:10:03.644Z,98702.55
2023-04-26T13:12:37.465Z,98708.33
2023-04-26T13:15:11.356Z,98712.27
2023-04-26T13:17:44.580Z,98715.70
2023-04-26T13:20:17.559Z,98717.02
2023-04-26T13:22:51.626Z,98721.30
2023-04-26T13:25:24.231Z,98721.92
2023-04-26T13:27:56.877Z,98722.76
2023-04-26T13:30:32.350Z,98724.63
2023-04-26T13:33:07.321Z,98726.41
2023-04-26T13:35:42.184Z,98732.61
2023-04-26T13:38:15.306Z,98732.53
2023-04-26T13:40:48.546Z,98733.36
2023-04-26T13:43:23.799Z,98734.34
2023-04-26T13:45:56.866Z,98737.13
2023-04-26T13:48:32.091Z,98737.36
2023-04-26T13:51:15.482Z,98736.13
2023-04-26T13:54:03.278Z,98738.95
2023-04-26T13:56:48.519Z,98741.06
2023-04-26T13:59:31.303Z,98736.23
2023-04-26T14:02:17.755Z,98738.03
2023-04-26T14:04:54.519Z,98740.40
2023-04-26T14:07:29.955Z,98743.39
2023-04-26T14:10:05.896Z,98742.71
2023-04-26T14:12:38.693Z,98743.55
2023-04-26T14:15:13.169Z,98739.63
2023-04-26T14:17:46.922Z,98746.72
2023-04-26T14:20:19.697Z,98748.21
2023-04-26T14:23:04.893Z,98751.26
2023-04-26T14:25:40.518Z,98753.48
2023-04-26T14:28:23.458Z,98751.10
2023-04-26T14:30:57.076Z,98755.92
2023-04-26T14:33:29.642Z,98753.08
2023-04-26T14:36:05.330Z,98756.02
2023-04-26T14:38:41.903Z,98754.61
2023-04-26T14:41:20.514Z,98758.74
2023-04-26T14:43:53.002Z,98762.21
2023-04-26T14:46:28.409Z,98767.42
2023-04-26T14:49:01.112Z,98762.95
2023-04-26T14:51:33.572Z,98762.83
2023-04-26T14:54:26.504Z,98763.66
2023-04-26T14:57:18.117Z,98768.48
2023-04-26T15:00:07.140Z,98769.20
2023-04-26T15:03:00.385Z,98769.55
2023-04-26T15:05:35.483Z,98775.47
2023-04-26T15:08:18.348Z,98775.34
2023-04-26T15:10:54.549Z,98779.14
2023-04-26T15:13:48.652Z,98781.17
2023-04-26T15:16:41.890Z,98784.31
2023-04-26T15:19:34.611Z,98786.17
2023-04-26T15:22:27.766Z,98790.45
2023-04-26T15:25:21.212Z,98796.13
2023-04-26T15:28:15.957Z,98798.05
2023-04-26T15:31:12.529Z,98804.28
2023-04-26T15:33:45.484Z,98805.34
2023-04-26T15:36:38.091Z,98810.34
2023-04-26T15:39:30.868Z,98813.39
2023-04-26T15:42:13.717Z,98811.30
2023-04-26T15:45:08.003Z,98813.03
2023-04-26T15:47:51.555Z,98808.67
2023-04-26T15:50:46.586Z,98814.42
2023-04-26T15:53:28.951Z,98813.34
2023-04-26T15:56:04.443Z,98814.21
2023-04-26T15:58:57.999Z,98817.89
2023-04-26T16:01:34.638Z,98817.48
2023-04-26T16:04:27.693Z,98820.20
2023-04-26T16:07:20.838Z,98822.18
2023-04-26T16:10:14.531Z,98825.14
2023-04-26T16:13:07.962Z,98823.08
2023-04-26T16:16:00.930Z,98829.64
2023-04-26T16:18:53.609Z,98824.36
2023-04-26T16:21:47.148Z,98826.73
2023-04-26T16:24:40.195Z,98831.77
2023-04-26T16:27:33.422Z,98836.83
2023-04-26T16:30:26.452Z,98839.73
2023-04-26T16:33:19.808Z,98844.38
2023-04-26T16:36:17.182Z,98853.16
2023-04-26T16:39:14.954Z,98860.69
2023-04-26T16:42:08.477Z,98865.25
2023-04-26T16:45:01.849Z,98862.92
2023-04-26T16:47:44.979Z,98862.95
2023-04-26T16:50:38.240Z,98867.96
2023-04-26T16:53:32.073Z,98867.02
2023-04-26T16:56:24.859Z,98868.08
2023-04-26T16:59:20.075Z,98868.52
2023-04-26T17:02:13.602Z,98872.65
2023-04-26T17:05:07.407Z,98879.96
2023-04-26T17:08:00.476Z,98884.29
2023-04-26T17:10:41.052Z,98885.77
2023-04-26T17:13:34.175Z,98891.63
2023-04-26T17:16:31.795Z,98892.23
2023-04-26T17:19:24.442Z,98896.70
2023-04-26T17:22:17.685Z,98901.14
2023-04-26T17:24:55.420Z,98902.95
2023-04-26T17:27:48.844Z,98905.92
2023-04-26T17:30:40.615Z,98909.95
2023-04-26T17:33:33.469Z,98910.70
2023-04-26T17:36:26.691Z,98914.04
2023-04-26T17:39:20.959Z,98917.38
2023-04-26T17:42:13.578Z,98917.58
2023-04-26T17:45:07.587Z,98921.78
2023-04-26T17:48:00.668Z,98922.84
2023-04-26T17:50:54.175Z,98927.20
2023-04-26T17:53:47.183Z,98932.77
2023-04-26T17:56:39.873Z,98939.20
2023-04-26T17:59:22.990Z,98946.52
2023-04-26T18:02:15.944Z,98946.30
2023-04-26T18:05:01.106Z,98952.55
2023-04-26T18:07:53.765Z,98953.21
2023-04-26T18:10:39.850Z,98960.15
2023-04-26T18:13:32.664Z,98963.77
2023-04-26T18:16:25.353Z,98968.06
2023-04-26T18:19:17.938Z,98969.39
2023-04-26T18:22:12.702Z,98970.72
2023-04-26T18:25:06.083Z,98978.15
2023-04-26T18:27:59.861Z,98978.79
2023-04-26T18:30:46.248Z,98978.71
2023-04-26T18:33:39.388Z,98984.73
2023-04-26T18:36:32.347Z,98989.36
2023-04-26T18:39:25.356Z,98992.59
2023-04-26T18:42:17.833Z,98991.83
2023-04-26T18:44:50.842Z,98995.60
2023-04-26T18:47:23.094Z,98995.55
2023-04-26T18:49:55.942Z,98997.08
2023-04-26T18:52:28.764Z,99000.52
2023-04-26T18:55:01.713Z,99005.16
2023-04-26T18:57:34.145Z,99007.03
2023-04-26T19:00:09.260Z,99007.00
2023-04-26T19:02:44.314Z,99009.38
2023-04-26T19:05:18.577Z,99016.81
2023-04-26T19:07:54.585Z,99014.85
2023-04-26T19:10:27.366Z,99020.52
2023-04-26T19:12:59.912Z,99019.08
2023-04-26T19:15:34.147Z,99023.02
2023-04-26T19:18:07.574Z,99027.14
2023-04-26T19:20:43.856Z,99027.96
2023-04-26T19:23:16.328Z,99031.72
2023-04-26T19:25:53.184Z,99033.06
2023-04-26T19:28:37.828Z,99032.81
2023-04-26T19:31:21.843Z,99034.98
2023-04-26T19:33:59.697Z,99036.27
2023-04-26T19:36:34.828Z,99040.16
2023-04-26T19:39:08.182Z,99041.27
2023-04-26T19:41:40.867Z,99044.94
2023-04-26T19:44:13.661Z,99046.49
2023-04-26T19:46:47.182Z,99044.58
2023-04-26T19:49:29.794Z,99045.75
2023-04-26T19:52:03.485Z,99045.00
2023-04-26T19:54:36.099Z,99044.08
2023-04-26T19:57:11.313Z,99041.59
2023-04-26T19:59:43.874Z,99047.44
2023-04-26T20:02:16.612Z,99053.27
2023-04-26T20:04:52.404Z,99054.48
2023-04-26T20:07:25.074Z,99055.20
2023-04-26T20:10:00.849Z,99055.35
2023-04-26T20:12:34.599Z,99059.77
2023-04-26T20:15:18.076Z,99061.70
2023-04-26T20:18:12.092Z,99065.75
2023-04-26T20:21:04.897Z,99064.23
2023-04-26T20:23:58.896Z,99065.20
2023-04-26T20:26:50.405Z,99067.19
2023-04-26T20:29:43.528Z,99067.10
2023-04-26T20:32:39.787Z,99068.61
2023-04-26T20:35:33.287Z,99069.98
2023-04-26T20:38:26.264Z,99071.90
2023-04-26T20:41:12.979Z,99072.98
2023-04-26T20:44:06.193Z,99068.55
2023-04-26T20:46:59.477Z,99067.75
2023-04-26T20:49:52.083Z,99065.41
2023-04-26T20:52:37.640Z,99068.30
2023-04-26T20:55:30.226Z,99071.02
2023-04-26T20:58:23.101Z,99071.40
2023-04-26T21:01:15.873Z,99068.14
2023-04-26T21:03:51.622Z,99073.35
2023-04-26T21:06:44.691Z,99075.63
2023-04-26T21:09:37.703Z,99079.80
2023-04-26T21:12:30.733Z,99084.83
2023-04-26T21:15:23.711Z,99086.71
2023-04-26T21:18:17.571Z,99087.70
2023-04-26T21:21:10.405Z,99088.35
2023-04-26T21:24:06.337Z,99088.47
2023-04-26T21:26:59.146Z,99090.67
2023-04-26T21:29:53.785Z,99095.28
2023-04-26T21:32:46.768Z,99099.32
2023-04-26T21:35:42.048Z,99100.09
2023-04-26T21:38:33.536Z,99100.83
2023-04-26T21:41:29.012Z,99100.18
2023-04-26T21:44:21.628Z,99103.16
2023-04-26T21:47:17.237Z,99104.08
2023-04-26T21:50:11.221Z,99104.48
2023-04-26T21:53:05.374Z,99106.41
2023-04-26T21:55:58.341Z,99110.42
2023-04-26T21:58:52.629Z,99114.81
2023-04-26T22:01:38.368Z,99115.35
2023-04-26T22:04:31.847Z,99113.65
2023-04-26T22:07:24.685Z,99121.16
2023-04-26T22:10:17.652Z,99126.73
2023-04-26T22:13:10.624Z,99126.23
2023-04-26T22:15:56.809Z,99128.15
2023-04-26T22:18:49.839Z,99133.04
2023-04-26T22:21:42.663Z,99131.67
2023-04-26T22:24:35.356Z,99134.63
2023-04-26T22:27:27.988Z,99137.08
2023-04-26T22:30:25.794Z,99132.06
2023-04-26T22:33:19.221Z,99137.45
2023-04-26T22:36:12.537Z,99137.79
2023-04-26T22:39:05.162Z,99137.77
2023-04-26T22:41:57.922Z,99135.35
2023-04-26T22:44:50.461Z,99135.02
2023-04-26T22:47:43.424Z,99134.14
2023-04-26T22:50:44.956Z,99134.46
2023-04-26T22:53:37.816Z,99136.36
2023-04-26T22:56:23.302Z,99134.63
2023-04-26T22:59:09.074Z,99138.63
2023-04-26T23:01:55.102Z,99144.15
2023-04-26T23:04:49.711Z,99142.21
2023-04-26T23:07:42.895Z,99143.04
2023-04-26T23:10:36.718Z,99144.27
2023-04-26T23:13:30.391Z,99137.83
2023-04-26T23:16:23.879Z,99140.27
2023-04-26T23:19:17.329Z,99147.59
2023-04-26T23:22:12.393Z,99148.30
2023-04-26T23:25:03.821Z,99146.23
2023-04-26T23:27:58.521Z,99143.98
2023-04-26T23:30:51.098Z,99145.40
2023-04-26T23:33:44.925Z,99150.42
2023-04-26T23:36:38.068Z,99144.71
2023-04-26T23:39:31.778Z,99148.19
2023-04-26T23:42:24.404Z,99152.52
2023-04-26T23:45:19.906Z,99152.66
2023-04-26T23:48:03.797Z,99154.21
2023-04-26T23:50:50.648Z,99149.86
2023-04-26T23:53:39.717Z,99153.50
2023-04-26T23:56:32.671Z,99156.05
2023-04-26T23:59:26.144Z,99153.10
